Time,TemperatureF,DewpointF,PressureIn,WindDirection,WindDirectionDegrees,WindSpeedMPH,WindSpeedGustMPH,Humidity,HourlyPrecipIn,Conditions,Clouds,dailyrainin,SolarRadiationWatts/m^2,SoftwareType,DateUTC
2013-10-06 00:03:00,61.0,61.0,-100.00,WSW,238,7.0,14.0,99,0.00,,,0.25,0.000000,,2013-10-06 05:03:00,
2013-10-06 00:13:00,61.0,61.0,-100.00,WSW,238,7.0,14.0,99,0.00,,,0.25,0.000000,,2013-10-06 05:13:00,
2013-10-06 00:43:00,58.0,56.0,-100.00,West,260,7.0,13.0,92,0.00,,,0.25,0.000000,,2013-10-06 05:43:00,
2013-10-06 00:52:00,58.0,56.0,-100.00,West,260,7.0,13.0,92,0.00,,,0.25,0.000000,,2013-10-06 05:52:00,
2013-10-06 01:02:00,58.0,56.0,-100.00,West,260,7.0,13.0,92,0.00,,,0.25,0.000000,,2013-10-06 06:02:00,
2013-10-06 01:12:00,58.0,56.0,-100.00,West,260,7.0,13.0,92,0.00,,,0.25,0.000000,,2013-10-06 06:12:00,
2013-10-06 01:42:00,56.0,50.0,-100.00,West,271,5.0,16.0,80,0.00,,,0.25,0.000000,,2013-10-06 06:42:00,
2013-10-06 01:52:00,56.0,50.0,-100.00,West,271,5.0,16.0,80,0.00,,,0.25,0.000000,,2013-10-06 06:52:00,
2013-10-06 02:02:00,56.0,50.0,-100.00,West,271,5.0,16.0,80,0.00,,,0.25,0.000000,,2013-10-06 07:02:00,
2013-10-06 02:11:00,56.0,50.0,-100.00,West,271,5.0,16.0,80,0.00,,,0.25,0.000000,,2013-10-06 07:11:00,
2013-10-06 02:43:00,54.0,48.0,-100.00,West,261,6.0,10.0,81,0.00,,,0.25,0.000000,,2013-10-06 07:43:00,
2013-10-06 02:52:00,54.0,48.0,-100.00,West,261,6.0,10.0,81,0.00,,,0.25,0.000000,,2013-10-06 07:52:00,
2013-10-06 03:03:00,54.0,48.0,-100.00,West,261,6.0,10.0,81,0.00,,,0.25,0.000000,,2013-10-06 08:03:00,
2013-10-06 03:11:00,54.0,48.0,-100.00,West,261,6.0,10.0,81,0.00,,,0.25,0.000000,,2013-10-06 08:11:00,
2013-10-06 03:42:00,52.0,47.0,-100.00,West,264,5.0,10.0,83,0.00,,,0.25,0.000000,,2013-10-06 08:42:00,
2013-10-06 03:53:00,52.0,47.0,-100.00,West,264,5.0,10.0,83,0.00,,,0.25,0.000000,,2013-10-06 08:53:00,
2013-10-06 04:01:00,52.0,47.0,-100.00,West,264,5.0,10.0,83,0.00,,,0.25,0.000000,,2013-10-06 09:01:00,
2013-10-06 04:11:00,52.0,47.0,-100.00,West,264,5.0,10.0,83,0.00,,,0.25,0.000000,,2013-10-06 09:11:00,
2013-10-06 04:43:00,48.0,45.0,-100.00,WSW,246,4.0,8.0,90,0.00,,,0.25,0.000000,,2013-10-06 09:43:00,
2013-10-06 04:53:00,48.0,45.0,-100.00,WSW,246,4.0,8.0,90,0.00,,,0.25,0.000000,,2013-10-06 09:53:00,
2013-10-06 05:03:00,48.0,45.0,-100.00,WSW,246,4.0,8.0,90,0.00,,,0.25,0.000000,,2013-10-06 10:03:00,
2013-10-06 05:13:00,48.0,45.0,-100.00,WSW,246,4.0,8.0,90,0.00,,,0.25,0.000000,,2013-10-06 10:13:00,
2013-10-06 05:43:00,46.0,46.0,-100.00,SW,230,0.0,5.0,100,0.00,,,0.25,0.000000,,2013-10-06 10:43:00,
2013-10-06 05:53:00,46.0,46.0,-100.00,SW,230,0.0,5.0,100,0.00,,,0.25,0.000000,,2013-10-06 10:53:00,
2013-10-06 06:02:00,46.0,46.0,-100.00,SW,230,0.0,5.0,100,0.00,,,0.25,0.000000,,2013-10-06 11:02:00,
2013-10-06 06:12:00,46.0,46.0,-100.00,SW,230,0.0,5.0,100,0.00,,,0.25,0.000000,,2013-10-06 11:12:00,
2013-10-06 06:42:00,45.0,45.0,-100.00,ENE,71,0.0,2.0,100,0.00,,,0.24,0.000000,,2013-10-06 11:42:00,
2013-10-06 06:52:00,45.0,45.0,-100.00,ENE,71,0.0,2.0,100,0.00,,,0.24,0.000000,,2013-10-06 11:52:00,
2013-10-06 07:02:00,45.0,45.0,-100.00,ENE,71,0.0,2.0,100,0.00,,,0.24,0.000000,,2013-10-06 12:02:00,
2013-10-06 07:12:00,45.0,45.0,-100.00,ENE,71,0.0,2.0,100,0.00,,,0.24,0.000000,,2013-10-06 12:12:00,
2013-10-06 07:42:00,43.0,43.0,-100.00,SE,131,2.0,3.0,100,0.00,,,0.24,1.000000,,2013-10-06 12:42:00,
2013-10-06 07:52:00,43.0,43.0,-100.00,SE,131,2.0,3.0,100,0.00,,,0.24,1.000000,,2013-10-06 12:52:00,
2013-10-06 08:02:00,43.0,43.0,-100.00,SE,131,2.0,3.0,100,0.00,,,0.24,1.000000,,2013-10-06 13:02:00,
2013-10-06 08:11:00,43.0,43.0,-100.00,SE,131,2.0,3.0,100,0.00,,,0.24,1.000000,,2013-10-06 13:11:00,
2013-10-06 08:42:00,47.0,47.0,-100.00,SW,232,1.0,2.0,100,0.00,,,-99.99,25.000000,,2013-10-06 13:42:00,
2013-10-06 08:52:00,47.0,47.0,-100.00,SW,232,1.0,2.0,100,0.00,,,-99.99,25.000000,,2013-10-06 13:52:00,
2013-10-06 09:02:00,47.0,47.0,-100.00,SW,232,1.0,2.0,100,0.00,,,-99.99,25.000000,,2013-10-06 14:02:00,
2013-10-06 09:11:00,47.0,47.0,-100.00,SW,232,1.0,2.0,100,0.00,,,-99.99,25.000000,,2013-10-06 14:11:00,
2013-10-06 09:42:00,52.0,48.0,-100.00,SW,236,2.0,6.0,85,0.00,,,0.24,165.000000,,2013-10-06 14:42:00,
2013-10-06 09:52:00,52.0,48.0,-100.00,SW,236,2.0,6.0,85,0.00,,,0.24,165.000000,,2013-10-06 14:52:00,
2013-10-06 10:02:00,52.0,48.0,-100.00,SW,236,2.0,6.0,85,0.00,,,0.24,165.000000,,2013-10-06 15:02:00,
2013-10-06 10:11:00,52.0,48.0,-100.00,SW,236,2.0,6.0,85,0.00,,,0.24,165.000000,,2013-10-06 15:11:00,
2013-10-06 10:44:00,56.0,41.0,-100.00,West,265,3.0,6.0,56,0.00,,,0.23,390.000000,,2013-10-06 15:44:00,
2013-10-06 10:54:00,56.0,41.0,-100.00,West,265,3.0,6.0,56,0.00,,,0.23,390.000000,,2013-10-06 15:54:00,
2013-10-06 11:03:00,56.0,41.0,-100.00,West,265,3.0,6.0,56,0.00,,,0.23,390.000000,,2013-10-06 16:03:00,
2013-10-06 11:12:00,56.0,41.0,-100.00,West,265,3.0,6.0,56,0.00,,,0.23,390.000000,,2013-10-06 16:12:00,
2013-10-06 11:43:00,58.0,39.0,-100.00,WSW,243,5.0,10.0,50,0.00,,,0.23,518.000000,,2013-10-06 16:43:00,
2013-10-06 11:53:00,58.0,39.0,-100.00,WSW,243,5.0,10.0,50,0.00,,,0.23,518.000000,,2013-10-06 16:53:00,
2013-10-06 12:02:00,58.0,39.0,-100.00,WSW,243,5.0,10.0,50,0.00,,,0.23,518.000000,,2013-10-06 17:02:00,
2013-10-06 12:12:00,58.0,39.0,-100.00,WSW,243,5.0,10.0,50,0.00,,,0.23,518.000000,,2013-10-06 17:12:00,
2013-10-06 12:42:00,56.0,40.0,-100.00,West,280,7.0,12.0,54,0.00,,,0.23,430.000000,,2013-10-06 17:42:00,
2013-10-06 12:52:00,56.0,40.0,-100.00,West,280,7.0,12.0,54,0.00,,,0.23,430.000000,,2013-10-06 17:52:00,
2013-10-06 13:02:00,56.0,40.0,-100.00,West,280,7.0,12.0,54,0.00,,,0.23,430.000000,,2013-10-06 18:02:00,
2013-10-06 13:12:00,56.0,40.0,-100.00,West,280,7.0,12.0,54,0.00,,,0.23,430.000000,,2013-10-06 18:12:00,
2013-10-06 13:43:00,59.0,40.0,-100.00,SW,236,5.0,11.0,50,0.00,,,0.20,414.000000,,2013-10-06 18:43:00,
2013-10-06 13:52:00,59.0,40.0,-100.00,SW,236,5.0,11.0,50,0.00,,,0.20,414.000000,,2013-10-06 18:52:00,
2013-10-06 14:01:00,59.0,40.0,-100.00,SW,236,5.0,11.0,50,0.00,,,0.20,414.000000,,2013-10-06 19:01:00,
2013-10-06 14:11:00,59.0,40.0,-100.00,SW,236,5.0,11.0,50,0.00,,,0.20,414.000000,,2013-10-06 19:11:00,
2013-10-06 14:42:00,58.0,39.0,-100.00,SW,214,4.0,9.0,50,0.00,,,0.19,307.000000,,2013-10-06 19:42:00,
2013-10-06 14:53:00,58.0,39.0,-100.00,SW,214,4.0,9.0,50,0.00,,,0.19,307.000000,,2013-10-06 19:53:00,
2013-10-06 15:02:00,58.0,39.0,-100.00,SW,214,4.0,9.0,50,0.00,,,0.19,307.000000,,2013-10-06 20:02:00,
2013-10-06 15:11:00,58.0,39.0,-100.00,SW,214,4.0,9.0,50,0.00,,,0.19,307.000000,,2013-10-06 20:11:00,
2013-10-06 15:42:00,56.0,42.0,-100.00,WSW,253,3.0,8.0,60,0.00,,,0.19,141.000000,,2013-10-06 20:42:00,
2013-10-06 15:52:00,56.0,42.0,-100.00,WSW,253,3.0,8.0,60,0.00,,,0.19,141.000000,,2013-10-06 20:52:00,
2013-10-06 16:01:00,56.0,42.0,-100.00,WSW,253,3.0,8.0,60,0.00,,,0.19,141.000000,,2013-10-06 21:01:00,
2013-10-06 16:11:00,56.0,42.0,-100.00,WSW,253,3.0,8.0,60,0.00,,,0.19,141.000000,,2013-10-06 21:11:00,
2013-10-06 16:44:00,58.0,40.0,-100.00,West,269,3.0,7.0,52,0.00,,,0.19,179.000000,,2013-10-06 21:44:00,
2013-10-06 16:55:00,58.0,40.0,-100.00,West,269,3.0,7.0,52,0.00,,,0.19,179.000000,,2013-10-06 21:55:00,
2013-10-06 17:04:00,58.0,40.0,-100.00,West,269,3.0,7.0,52,0.00,,,0.19,179.000000,,2013-10-06 22:04:00,
2013-10-06 17:13:00,58.0,40.0,-100.00,West,269,3.0,7.0,52,0.00,,,0.19,179.000000,,2013-10-06 22:13:00,
2013-10-06 17:43:00,55.0,42.0,-100.00,WSW,251,4.0,10.0,61,0.00,,,0.19,104.000000,,2013-10-06 22:43:00,
2013-10-06 17:54:00,55.0,42.0,-100.00,WSW,251,4.0,10.0,61,0.00,,,0.19,104.000000,,2013-10-06 22:54:00,
2013-10-06 18:03:00,55.0,42.0,-100.00,WSW,251,4.0,10.0,61,0.00,,,0.19,104.000000,,2013-10-06 23:03:00,
2013-10-06 18:12:00,55.0,42.0,-100.00,WSW,251,4.0,10.0,61,0.00,,,0.19,104.000000,,2013-10-06 23:12:00,
2013-10-06 18:42:00,53.0,44.0,-100.00,SW,224,3.0,7.0,72,0.00,,,0.11,22.000000,,2013-10-06 23:42:00,
2013-10-06 18:53:00,53.0,44.0,-100.00,SW,224,3.0,7.0,72,0.00,,,0.11,22.000000,,2013-10-06 23:53:00,
2013-10-06 19:02:00,53.0,44.0,-100.00,SW,224,3.0,7.0,72,0.00,,,0.11,22.000000,,2013-10-07 00:02:00,
2013-10-06 19:12:00,53.0,44.0,-100.00,SW,224,3.0,7.0,72,0.00,,,0.11,22.000000,,2013-10-07 00:12:00,
2013-10-06 19:42:00,51.0,43.0,-100.00,WSW,252,7.0,13.0,74,0.00,,,0.09,1.000000,,2013-10-07 00:42:00,
2013-10-06 19:52:00,51.0,43.0,-100.00,WSW,252,7.0,13.0,74,0.00,,,0.09,1.000000,,2013-10-07 00:52:00,
2013-10-06 20:02:00,51.0,43.0,-100.00,WSW,252,7.0,13.0,74,0.00,,,0.09,1.000000,,2013-10-07 01:02:00,
2013-10-06 20:11:00,51.0,43.0,-100.00,WSW,252,7.0,13.0,74,0.00,,,0.09,1.000000,,2013-10-07 01:11:00,
2013-10-06 20:42:00,50.0,43.0,-100.00,WSW,245,6.0,12.0,78,0.00,,,0.09,0.000000,,2013-10-07 01:42:00,
2013-10-06 20:53:00,50.0,43.0,-100.00,WSW,245,6.0,12.0,78,0.00,,,0.09,0.000000,,2013-10-07 01:53:00,
2013-10-06 21:02:00,50.0,43.0,-100.00,WSW,245,6.0,12.0,78,0.00,,,0.09,0.000000,,2013-10-07 02:02:00,
2013-10-06 21:12:00,50.0,43.0,-100.00,WSW,245,6.0,12.0,78,0.00,,,0.09,0.000000,,2013-10-07 02:12:00,
2013-10-06 21:42:00,49.0,43.0,-100.00,WSW,238,6.0,14.0,79,0.00,,,0.00,0.000000,,2013-10-07 02:42:00,
2013-10-06 21:53:00,49.0,43.0,-100.00,WSW,238,6.0,14.0,79,0.00,,,0.00,0.000000,,2013-10-07 02:53:00,
2013-10-06 22:02:00,49.0,43.0,-100.00,WSW,238,6.0,14.0,79,0.00,,,0.00,0.000000,,2013-10-07 03:02:00,
2013-10-06 22:12:00,49.0,43.0,-100.00,WSW,238,6.0,14.0,79,0.00,,,0.00,0.000000,,2013-10-07 03:12:00,
2013-10-06 22:44:00,48.0,45.0,-100.00,West,280,7.0,12.0,88,0.00,,,0.00,0.000000,,2013-10-07 03:44:00,
2013-10-06 22:54:00,48.0,45.0,-100.00,West,280,7.0,12.0,88,0.00,,,0.00,0.000000,,2013-10-07 03:54:00,
2013-10-06 23:04:00,48.0,45.0,-100.00,West,280,7.0,12.0,88,0.00,,,0.00,0.000000,,2013-10-07 04:04:00,
2013-10-06 23:13:00,48.0,45.0,-100.00,West,280,7.0,12.0,88,0.00,,,0.00,0.000000,,2013-10-07 04:13:00,
2013-10-06 23:44:00,48.0,46.0,-100.00,West,262,5.0,12.0,93,0.00,,,0.00,0.000000,,2013-10-07 04:44:00,
2013-10-06 23:53:00,48.0,46.0,-100.00,West,262,5.0,12.0,93,0.00,,,0.00,0.000000,,2013-10-07 04:53:00,